Time;durP1;ratioP1;P1;durP2;ratioP2;P2;SDS_P1;SDS_P2;PMS_P1;PMS_P2;Temp;Humidity;BMP_temperature;BMP_pressure;BME280_temperature;BME280_humidity;BME280_pressure;Samples;Min_cycle;Max_cycle;Signal;HPM_P1;HPM_P2
2022/01/06 00:01:38;;;;;;;0.20;0.20;;;;;;;19.37;43.39;101009.03;5127281;27;20035;-33
2022/01/06 00:04:04;;;;;;;0.20;0.20;;;;;;;19.36;43.72;101007.41;5130012;28;20395;-35
2022/01/06 00:06:30;;;;;;;0.20;0.20;;;;;;;19.36;43.59;101009.34;5129539;28;20043;-33
2022/01/06 00:08:57;;;;;;;0.20;0.20;;;;;;;19.37;43.72;101020.09;5129464;28;20047;-34
2022/01/06 00:11:24;;;;;;;0.20;0.20;;;;;;;19.38;43.46;101018.16;5128349;28;20375;-33
2022/01/06 00:13:58;;;;;;;0.22;0.22;;;;;;;19.38;43.46;101010.69;5127216;28;20635;-34
2022/01/06 00:16:43;;;;;;;0.30;0.30;;;;;;;19.39;43.61;101017.06;5128694;28;20096;-35
2022/01/06 00:24:27;;;;;;;0.20;0.20;;;;;;;19.36;43.55;101028.66;5112130;28;20039;-34
2022/01/06 00:26:53;;;;;;;0.20;0.20;;;;;;;19.37;43.39;101027.56;5093546;28;20088;-34
2022/01/06 00:29:19;;;;;;;0.20;0.20;;;;;;;19.37;43.50;101028.38;5110287;28;20327;-33
2022/01/06 00:31:46;;;;;;;0.20;0.20;;;;;;;19.38;43.48;101037.47;5091755;28;20049;-33
2022/01/06 00:34:11;;;;;;;0.20;0.20;;;;;;;19.38;43.57;101049.34;5127505;28;20043;-33
2022/01/06 00:36:40;;;;;;;0.20;0.20;;;;;;;19.36;43.33;101051.59;5090538;28;20047;-33
2022/01/06 00:39:07;;;;;;;0.20;0.20;;;;;;;19.37;43.53;101053.22;5124505;28;20050;-34
2022/01/06 00:41:34;;;;;;;0.20;0.20;;;;;;;19.37;43.38;101047.72;5129594;28;20400;-34
2022/01/06 00:44:01;;;;;;;0.20;0.20;;;;;;;19.37;43.42;101053.22;5105571;28;20035;-33
2022/01/06 00:46:26;;;;;;;0.20;0.20;;;;;;;19.36;43.39;101056.28;5129352;28;20327;-33
2022/01/06 00:48:52;;;;;;;0.20;0.20;;;;;;;19.36;43.46;101057.09;5107754;28;20039;-33
2022/01/06 00:51:18;;;;;;;0.20;0.20;;;;;;;19.36;43.45;101068.16;5126523;28;20371;-33
2022/01/06 00:53:44;;;;;;;0.20;0.20;;;;;;;19.35;43.71;101074.78;5120708;28;20058;-35
2022/01/06 00:56:09;;;;;;;0.20;0.20;;;;;;;19.38;43.33;101067.88;5125995;28;20043;-33
2022/01/06 00:58:35;;;;;;;0.20;0.20;;;;;;;19.37;43.54;101071.75;5108133;28;20043;-34
2022/01/06 01:01:01;;;;;;;0.20;0.20;;;;;;;19.37;43.65;101064.28;5128310;28;20043;-33
2022/01/06 01:03:27;;;;;;;0.20;0.20;;;;;;;19.37;43.33;101069.81;5090626;28;20374;-34
2022/01/06 01:05:55;;;;;;;0.20;0.20;;;;;;;19.37;43.53;101061.50;5126009;28;20127;-33
2022/01/06 01:08:21;;;;;;;0.20;0.20;;;;;;;19.36;43.60;101068.16;5123734;28;20051;-35
2022/01/06 01:10:48;;;;;;;0.20;0.20;;;;;;;19.36;43.73;101064.56;5123518;28;20137;-34
2022/01/06 01:13:15;;;;;;;0.20;0.20;;;;;;;19.37;43.71;101071.75;5107176;28;20049;-33
2022/01/06 01:15:47;;;;;;;0.20;0.20;;;;;;;19.38;43.51;101070.63;5110218;28;20385;-33
2022/01/06 01:18:17;;;;;;;0.20;0.20;;;;;;;19.37;43.58;101071.75;5127105;28;20041;-35
2022/01/06 01:20:43;;;;;;;0.20;0.20;;;;;;;19.38;43.76;101067.88;5107652;28;20059;-34
2022/01/06 01:23:09;;;;;;;0.28;0.28;;;;;;;19.37;43.59;101063.44;5125097;28;20122;-34
2022/01/06 01:25:34;;;;;;;0.20;0.20;;;;;;;19.36;43.57;101079.19;5127419;28;20095;-33
2022/01/06 01:28:00;;;;;;;0.20;0.20;;;;;;;19.36;43.43;101070.91;5124440;28;20048;-34
2022/01/06 01:30:32;;;;;;;0.20;0.20;;;;;;;19.37;43.51;101066.22;5125999;28;20036;-34
2022/01/06 01:32:59;;;;;;;0.20;0.20;;;;;;;19.35;43.41;101066.50;5105354;28;21268;-34
2022/01/06 01:35:31;;;;;;;0.20;0.20;;;;;;;19.35;43.51;101069.28;5109543;28;20054;-34
2022/01/06 01:37:57;;;;;;;0.20;0.20;;;;;;;19.36;43.60;101079.19;5126048;28;20039;-34
2022/01/06 01:40:23;;;;;;;0.20;0.20;;;;;;;19.37;43.53;101083.59;5127435;28;20066;-34
2022/01/06 01:42:49;;;;;;;0.20;0.20;;;;;;;19.37;43.40;101088.31;5109449;28;20079;-35
2022/01/06 01:45:16;;;;;;;0.20;0.20;;;;;;;19.36;43.48;101084.72;5128715;28;20039;-35
2022/01/06 01:47:45;;;;;;;0.20;0.20;;;;;;;19.36;43.51;101087.47;5110541;28;20087;-33
2022/01/06 01:50:15;;;;;;;0.20;0.20;;;;;;;19.36;43.55;101094.94;5126904;28;20099;-33
2022/01/06 01:52:44;;;;;;;0.20;0.20;;;;;;;19.37;43.59;101096.59;5106776;28;20061;-37
2022/01/06 01:55:12;;;;;;;0.20;0.20;;;;;;;19.37;43.49;101097.41;5111043;28;20111;-36
2022/01/06 01:57:38;;;;;;;0.20;0.20;;;;;;;19.36;43.50;101100.47;5093091;28;20078;-33
2022/01/06 02:00:07;;;;;;;0.20;0.20;;;;;;;19.37;43.51;101108.47;5128434;28;20050;-33
2022/01/06 02:02:32;;;;;;;0.20;0.20;;;;;;;19.35;43.67;101105.16;5093742;28;20043;-34
2022/01/06 02:04:59;;;;;;;0.30;0.30;;;;;;;19.36;43.34;101115.09;5110408;28;20043;-33
2022/01/06 02:07:25;;;;;;;0.20;0.20;;;;;;;19.36;43.59;101119.78;5127855;28;20035;-33
2022/01/06 02:09:51;;;;;;;0.20;0.20;;;;;;;19.35;43.75;101098.81;5128020;28;20039;-34
2022/01/06 02:12:26;;;;;;;0.30;0.30;;;;;;;19.35;43.40;101105.16;5123944;28;20128;-34
2022/01/06 02:14:51;;;;;;;0.20;0.20;;;;;;;19.35;43.41;101107.94;5127452;28;20137;-34
2022/01/06 02:17:17;;;;;;;0.20;0.20;;;;;;;19.36;43.54;101114.28;5127425;28;20050;-34
2022/01/06 02:20:03;;;;;;;0.20;0.20;;;;;;;19.36;43.66;101117.88;5128993;27;20058;-35
2022/01/06 02:22:29;;;;;;;0.20;0.20;;;;;;;19.36;43.49;101114.28;5122931;28;20050;-35
2022/01/06 02:24:55;;;;;;;0.20;0.20;;;;;;;19.36;43.69;101115.09;5121675;27;20039;-34
2022/01/06 02:27:21;;;;;;;0.20;0.20;;;;;;;19.36;43.68;101108.75;5123141;28;20055;-34
2022/01/06 02:29:48;;;;;;;0.20;0.20;;;;;;;19.35;43.54;101113.44;5126828;28;20103;-35
2022/01/06 02:32:16;;;;;;;0.20;0.20;;;;;;;19.36;43.57;101114.28;5105755;28;20039;-34
2022/01/06 02:34:44;;;;;;;;;;;;;;;19.35;43.43;101118.97;5109744;28;20048;-34
2022/01/06 02:37:09;;;;;;;0.20;0.20;;;;;;;19.35;43.65;101115.38;5126936;28;20322;-34
2022/01/06 02:39:35;;;;;;;0.28;0.28;;;;;;;19.35;43.47;101121.75;5091684;28;20477;-35
2022/01/06 02:42:01;;;;;;;0.20;0.20;;;;;;;19.36;43.71;101125.31;5108820;28;20047;-34
2022/01/06 02:44:27;;;;;;;0.20;0.20;;;;;;;19.35;43.38;101124.50;5126683;28;20054;-34
2022/01/06 02:46:53;;;;;;;0.20;0.20;;;;;;;19.35;43.60;101124.50;5126070;28;20035;-34
2022/01/06 02:49:19;;;;;;;0.20;0.20;;;;;;;19.36;43.55;101131.66;5108696;28;20040;-34
2022/01/06 02:51:46;;;;;;;0.20;0.20;;;;;;;19.35;43.78;101130.03;5107183;28;20039;-33
2022/01/06 02:54:13;;;;;;;0.20;0.20;;;;;;;19.36;43.64;101133.59;5088316;28;20389;-36
2022/01/06 02:56:41;;;;;;;0.20;0.20;;;;;;;19.35;43.35;101132.78;5126357;28;20035;-34
2022/01/06 02:59:07;;;;;;;;;;;;;;;19.35;43.72;101132.78;5126355;28;20470;-34
2022/01/06 03:01:37;;;;;;;0.20;0.20;;;;;;;19.35;43.61;101129.19;5124830;28;19943;-34
2022/01/06 03:04:03;;;;;;;0.20;0.20;;;;;;;19.36;43.67;101136.38;5127560;28;20039;-33
2022/01/06 03:06:29;;;;;;;0.20;0.20;;;;;;;19.35;43.40;101137.47;5124622;28;20134;-33
2022/01/06 03:08:54;;;;;;;0.20;0.20;;;;;;;19.36;43.48;101139.13;5124552;28;20084;-33
2022/01/06 03:11:25;;;;;;;0.20;0.20;;;;;;;19.36;43.48;101136.38;5126126;28;20044;-34
2022/01/06 03:13:52;;;;;;;0.20;0.20;;;;;;;19.36;43.63;101142.72;5121817;28;20051;-33
2022/01/06 03:16:17;;;;;;;0.20;0.20;;;;;;;19.34;43.66;101142.16;5125864;28;20039;-33
2022/01/06 03:18:43;;;;;;;0.20;0.20;;;;;;;19.36;43.39;101152.94;5107728;28;20047;-33
2022/01/06 03:21:09;;;;;;;0.20;0.20;;;;;;;19.34;43.63;101147.66;5126584;28;20046;-34
2022/01/06 03:23:34;;;;;;;0.20;0.20;;;;;;;19.35;43.44;101151.28;5123847;28;20226;-33
2022/01/06 03:26:00;;;;;;;0.20;0.20;;;;;;;19.35;43.60;101163.16;5126412;28;20047;-34
2022/01/06 03:28:26;;;;;;;0.20;0.20;;;;;;;19.34;43.43;101155.97;5108092;28;20476;-33
2022/01/06 03:30:51;;;;;;;0.20;0.20;;;;;;;19.34;43.71;101164.25;5124550;28;20074;-34
2022/01/06 03:33:17;;;;;;;0.20;0.20;;;;;;;19.35;43.65;101151.28;5120392;28;20084;-34
2022/01/06 03:35:43;;;;;;;0.20;0.20;;;;;;;19.34;43.56;101161.47;5126616;27;20429;-33
2022/01/06 03:38:09;;;;;;;0.20;0.20;;;;;;;19.35;43.55;101163.16;5130761;27;20042;-34
2022/01/06 03:40:34;;;;;;;0.20;0.20;;;;;;;19.35;43.47;101157.63;5129946;28;20039;-33
2022/01/06 03:43:01;;;;;;;0.20;0.20;;;;;;;19.33;43.58;101165.34;5126965;28;20055;-34
2022/01/06 03:45:26;;;;;;;0.20;0.20;;;;;;;19.34;43.75;101158.72;5127488;28;20223;-33
2022/01/06 03:47:52;;;;;;;0.20;0.20;;;;;;;19.35;43.42;101168.69;5127881;28;20490;-34
2022/01/06 03:50:18;;;;;;;0.20;0.20;;;;;;;19.36;43.37;101180.56;5110830;28;20047;-34
2022/01/06 03:52:44;;;;;;;0.20;0.20;;;;;;;19.35;43.68;101176.16;5123953;28;20085;-34
2022/01/06 03:55:15;;;;;;;0.20;0.20;;;;;;;19.35;43.49;101179.72;5128493;28;20404;-33
2022/01/06 03:57:41;;;;;;;0.20;0.20;;;;;;;19.36;43.42;101183.31;5128911;28;20051;-33
2022/01/06 04:00:10;;;;;;;0.20;0.20;;;;;;;19.35;43.46;101187.19;5128493;28;20394;-34
2022/01/06 04:02:36;;;;;;;0.20;0.20;;;;;;;19.35;43.43;101193.53;5108949;28;20050;-33
2022/01/06 04:05:03;;;;;;;0.20;0.20;;;;;;;19.35;43.38;101184.44;5130822;28;20163;-34
2022/01/06 04:07:29;;;;;;;0.20;0.20;;;;;;;19.35;43.68;101189.94;5129636;28;20130;-34
2022/01/06 04:09:54;;;;;;;0.20;0.20;;;;;;;19.34;43.50;101186.34;5129022;28;20070;-33
2022/01/06 04:12:20;;;;;;;0.20;0.20;;;;;;;19.34;43.22;101196.56;5128150;28;20046;-33
2022/01/06 04:14:46;;;;;;;0.17;0.17;;;;;;;19.35;43.33;101198.22;5129413;28;20054;-33
2022/01/06 04:17:11;;;;;;;0.20;0.20;;;;;;;19.34;43.68;101194.63;5105426;28;20036;-33
2022/01/06 04:19:40;;;;;;;;;;;;;;;19.35;43.39;101201.81;5131539;27;20084;-33
2022/01/06 04:22:05;;;;;;;0.20;0.20;;;;;;;19.34;43.61;101200.16;5128943;28;19920;-34
2022/01/06 04:24:32;;;;;;;0.20;0.20;;;;;;;19.34;43.25;101204.84;5094344;28;20039;-34
2022/01/06 04:26:57;;;;;;;0.20;0.20;;;;;;;19.35;43.40;101201.00;5092573;28;20815;-33
2022/01/06 04:29:23;;;;;;;0.20;0.20;;;;;;;19.34;43.48;101204.84;5123872;28;20059;-35
2022/01/06 04:31:48;;;;;;;0.20;0.20;;;;;;;19.33;43.54;101212.28;5127621;28;20048;-35
2022/01/06 04:34:14;;;;;;;0.20;0.20;;;;;;;19.34;43.70;101215.88;5127472;27;20047;-33
2022/01/06 04:36:46;;;;;;;0.20;0.20;;;;;;;19.34;43.53;101221.41;5127911;28;20072;-34
2022/01/06 04:39:12;;;;;;;0.20;0.20;;;;;;;19.34;43.44;101221.41;5128695;28;20045;-34
2022/01/06 04:41:38;;;;;;;0.20;0.20;;;;;;;19.33;43.67;101220.59;5126329;28;20047;-37
2022/01/06 04:44:03;;;;;;;0.20;0.20;;;;;;;19.34;43.45;101218.66;5127040;28;20051;-35
2022/01/06 04:46:29;;;;;;;0.20;0.20;;;;;;;19.35;43.53;101223.09;5128883;28;20142;-34
2022/01/06 04:48:55;;;;;;;0.20;0.20;;;;;;;19.35;43.43;101225.84;5124208;27;20515;-35
2022/01/06 04:51:20;;;;;;;0.20;0.20;;;;;;;19.35;43.56;101232.19;5129733;28;20043;-34
2022/01/06 04:53:46;;;;;;;0.20;0.20;;;;;;;19.33;43.52;101234.38;5122752;28;20111;-33
2022/01/06 04:56:14;;;;;;;0.20;0.20;;;;;;;19.33;43.58;101234.38;5126202;28;20132;-34
2022/01/06 04:58:40;;;;;;;0.20;0.20;;;;;;;19.33;43.36;101233.56;5127088;28;20433;-34
2022/01/06 05:01:05;;;;;;;0.20;0.20;;;;;;;19.33;43.46;101239.91;5128777;28;20039;-34
2022/01/06 05:03:31;;;;;;;0.20;0.20;;;;;;;19.34;43.46;101237.97;5120342;28;20092;-34
2022/01/06 05:05:57;;;;;;;0.20;0.20;;;;;;;19.35;43.69;101247.94;5128166;28;20050;-33
2022/01/06 05:08:22;;;;;;;0.20;0.20;;;;;;;19.35;43.50;101251.53;5127482;28;20080;-34
2022/01/06 05:10:50;;;;;;;0.20;0.20;;;;;;;19.35;43.35;101245.19;5129529;28;20043;-35
2022/01/06 05:13:15;;;;;;;0.20;0.20;;;;;;;19.35;43.40;101253.47;5120725;28;20046;-34
2022/01/06 05:15:41;;;;;;;0.20;0.20;;;;;;;19.34;43.63;101247.09;5129367;28;20039;-33
2022/01/06 05:18:07;;;;;;;0.20;0.20;;;;;;;19.35;43.26;101250.72;5128342;27;20051;-35
2022/01/06 05:20:33;;;;;;;0.20;0.20;;;;;;;19.34;43.58;101252.63;5126895;28;20076;-34
2022/01/06 05:22:59;;;;;;;0.20;0.20;;;;;;;19.33;43.60;101256.47;5123229;27;20741;-34
2022/01/06 05:25:26;;;;;;;0.20;0.20;;;;;;;19.33;43.69;101262.00;5129487;28;20071;-33
2022/01/06 05:27:53;;;;;;;0.20;0.20;;;;;;;19.34;43.48;101260.91;5125370;28;20046;-33
2022/01/06 05:30:19;;;;;;;0.20;0.20;;;;;;;19.33;43.65;101267.53;5125931;28;20293;-35
2022/01/06 05:32:45;;;;;;;0.20;0.20;;;;;;;19.34;43.67;101269.19;5123239;28;21140;-36
2022/01/06 05:35:10;;;;;;;0.20;0.20;;;;;;;19.35;43.34;101281.91;5124013;27;20040;-37
2022/01/06 05:37:36;;;;;;;0.20;0.20;;;;;;;19.35;43.31;101270.03;5128990;28;20039;-34
2022/01/06 05:40:03;;;;;;;0.20;0.20;;;;;;;19.34;43.48;101283.00;5128143;28;20047;-35
2022/01/06 05:42:28;;;;;;;0.20;0.20;;;;;;;19.34;43.65;101277.47;5110878;28;20047;-36
2022/01/06 05:44:54;;;;;;;0.20;0.20;;;;;;;19.34;43.51;101283.00;5127100;28;20628;-33
2022/01/06 05:47:20;;;;;;;0.20;0.20;;;;;;;19.33;43.35;101281.34;5109968;28;20451;-34
2022/01/06 05:49:46;;;;;;;0.20;0.20;;;;;;;19.35;43.42;101281.09;5110322;28;20462;-34
2022/01/06 05:52:12;;;;;;;0.20;0.20;;;;;;;19.34;43.43;101284.94;5125646;28;20047;-34
2022/01/06 05:54:38;;;;;;;0.20;0.20;;;;;;;19.34;43.36;101290.44;5125945;28;20054;-34
2022/01/06 05:57:08;;;;;;;0.20;0.20;;;;;;;19.32;43.46;101293.50;5105676;28;20499;-35
2022/01/06 05:59:34;;;;;;;0.20;0.20;;;;;;;19.35;43.36;101294.91;5129023;27;20078;-34
2022/01/06 06:02:00;;;;;;;0.20;0.20;;;;;;;19.33;43.35;101297.91;5125205;28;20044;-34
2022/01/06 06:04:27;;;;;;;0.20;0.20;;;;;;;19.34;43.34;101312.53;5126782;28;20054;-34
2022/01/06 06:06:52;;;;;;;0.20;0.20;;;;;;;19.32;43.34;101314.75;5105572;28;20723;-34
2022/01/06 06:09:18;;;;;;;0.20;0.20;;;;;;;19.34;43.36;101313.38;5128337;28;20039;-34
2022/01/06 06:11:43;;;;;;;0.20;0.20;;;;;;;19.33;43.36;101308.94;5128587;28;20486;-35
2022/01/06 06:14:09;;;;;;;0.20;0.20;;;;;;;19.34;43.50;101315.31;5123627;28;20346;-34
2022/01/06 06:16:35;;;;;;;0.20;0.20;;;;;;;19.34;43.29;101320.81;5109791;28;20100;-36
2022/01/06 06:19:01;;;;;;;0.20;0.20;;;;;;;19.34;43.43;101320.81;5125371;27;20051;-34
2022/01/06 06:21:26;;;;;;;0.20;0.20;;;;;;;19.34;43.36;101323.59;5123586;28;20051;-35
2022/01/06 06:23:52;;;;;;;0.20;0.20;;;;;;;19.33;43.56;101333.81;5122694;28;20050;-34
2022/01/06 06:26:18;;;;;;;0.20;0.20;;;;;;;19.35;43.59;101336.31;5092403;28;20093;-34
2022/01/06 06:28:43;;;;;;;0.20;0.20;;;;;;;19.34;43.62;101334.63;5124370;28;20054;-34
2022/01/06 06:31:09;;;;;;;0.20;0.20;;;;;;;19.33;43.36;101331.03;5121487;28;20044;-34
2022/01/06 06:33:35;;;;;;;0.25;0.25;;;;;;;19.34;43.63;101338.22;5120283;27;20043;-34
2022/01/06 06:36:00;;;;;;;0.20;0.20;;;;;;;19.34;43.86;101340.16;5127817;28;20393;-33
2022/01/06 06:38:26;;;;;;;0.20;0.20;;;;;;;19.33;43.46;101341.28;5109602;28;20066;-34
2022/01/06 06:40:52;;;;;;;0.20;0.20;;;;;;;19.34;43.56;101345.69;5126343;28;20096;-34
2022/01/06 06:43:17;;;;;;;0.20;0.20;;;;;;;19.32;43.37;101340.44;5127311;28;20047;-34
2022/01/06 06:45:43;;;;;;;0.20;0.20;;;;;;;19.33;43.39;101353.16;5129338;28;20610;-34
2022/01/06 06:48:10;;;;;;;0.20;0.20;;;;;;;19.34;43.51;101356.72;5091308;28;20402;-33
2022/01/06 06:50:35;;;;;;;0.20;0.20;;;;;;;19.33;43.67;101352.31;5092809;28;20051;-33
2022/01/06 06:53:02;;;;;;;0.20;0.20;;;;;;;19.33;43.59;101364.19;5102282;28;20197;-34
2022/01/06 06:55:29;;;;;;;0.20;0.20;;;;;;;19.33;43.61;101368.88;5107172;28;20043;-34
2022/01/06 06:57:55;;;;;;;0.20;0.20;;;;;;;19.32;43.37;101370.00;5124524;28;20039;-34
2022/01/06 07:00:21;;;;;;;0.20;0.20;;;;;;;19.33;43.53;101385.47;5121050;27;20044;-33
2022/01/06 07:02:47;;;;;;;0.20;0.20;;;;;;;19.32;43.59;101386.56;5126477;28;20050;-33
2022/01/06 07:05:15;;;;;;;0.20;0.20;;;;;;;19.32;43.46;101384.63;5125484;28;20124;-33
2022/01/06 07:07:41;;;;;;;;;;;;;;;19.33;43.43;101391.81;5124621;28;20130;-33
2022/01/06 07:10:07;;;;;;;0.20;0.20;;;;;;;19.32;43.33;101392.91;5126089;28;19920;-34
2022/01/06 07:12:33;;;;;;;0.20;0.20;;;;;;;19.33;43.45;101402.84;5128346;27;20047;-34
2022/01/06 07:15:00;;;;;;;0.30;0.30;;;;;;;19.33;43.26;101394.56;5129919;28;20047;-34
2022/01/06 07:17:26;;;;;;;0.20;0.20;;;;;;;19.33;43.29;101390.97;5109994;28;20043;-33
2022/01/06 07:19:51;;;;;;;0.20;0.20;;;;;;;19.32;43.51;101394.84;5131040;28;20046;-34
2022/01/06 07:22:17;;;;;;;0.20;0.20;;;;;;;19.33;43.53;101396.50;5110861;28;20035;-35
2022/01/06 07:24:43;;;;;;;0.20;0.20;;;;;;;19.33;43.55;101407.53;5127891;28;20069;-34
2022/01/06 07:27:13;;;;;;;0.30;0.30;;;;;;;19.32;43.28;101408.66;5127530;28;20043;-35
2022/01/06 07:29:39;;;;;;;0.20;0.20;;;;;;;19.32;43.46;101406.72;5126215;28;20047;-35
2022/01/06 07:32:05;;;;;;;0.20;0.20;;;;;;;19.32;43.63;101411.41;5128979;28;20050;-34
2022/01/06 07:34:30;;;;;;;0.20;0.20;;;;;;;19.32;43.36;101412.25;5130162;27;20385;-34
2022/01/06 07:36:56;;;;;;;0.20;0.20;;;;;;;19.33;43.38;101416.66;5123189;28;20043;-35
2022/01/06 07:39:21;;;;;;;0.20;0.20;;;;;;;19.33;43.57;101427.72;5125656;28;20493;-34
2022/01/06 07:41:47;;;;;;;0.20;0.20;;;;;;;19.32;43.57;101428.81;5129693;28;20055;-34
2022/01/06 07:44:13;;;;;;;0.20;0.20;;;;;;;19.32;43.58;101430.75;5130523;28;20043;-35
2022/01/06 07:46:40;;;;;;;0.20;0.20;;;;;;;19.33;43.53;101432.41;5130069;28;20039;-37
2022/01/06 07:49:06;;;;;;;0.20;0.20;;;;;;;19.33;43.55;101437.94;5129845;28;20054;-34
2022/01/06 07:51:32;;;;;;;0.20;0.20;;;;;;;19.32;43.61;101447.31;5127758;28;20043;-34
2022/01/06 07:53:58;;;;;;;0.20;0.20;;;;;;;19.34;43.27;101447.88;5128011;28;20225;-35
2022/01/06 07:56:24;;;;;;;0.20;0.20;;;;;;;19.33;43.33;101448.97;5107318;28;20057;-38
2022/01/06 07:58:50;;;;;;;0.20;0.20;;;;;;;19.32;43.24;101456.44;5112299;28;20043;-34
2022/01/06 08:01:16;;;;;;;0.20;0.20;;;;;;;19.34;43.22;101467.19;5113467;28;20092;-34
2022/01/06 08:03:42;;;;;;;0.20;0.20;;;;;;;19.33;43.23;101465.53;5129583;28;20043;-34
2022/01/06 08:06:09;;;;;;;0.20;0.20;;;;;;;19.32;43.31;101461.94;5128878;28;20085;-35
2022/01/06 08:08:34;;;;;;;0.20;0.20;;;;;;;19.32;43.33;101469.41;5109684;28;20050;-34
2022/01/06 08:11:00;;;;;;;0.20;0.20;;;;;;;19.30;43.26;101470.53;5125037;28;20048;-36
2022/01/06 08:13:26;;;;;;;0.20;0.20;;;;;;;19.32;43.45;101480.47;5109855;28;20035;-34
2022/01/06 08:15:51;;;;;;;0.20;0.20;;;;;;;19.32;43.67;101477.69;5129282;28;20040;-34
2022/01/06 08:18:17;;;;;;;0.20;0.20;;;;;;;19.31;43.28;101479.63;5128694;27;20039;-34
2022/01/06 08:20:43;;;;;;;0.20;0.20;;;;;;;19.30;43.25;101470.53;5130108;28;20421;-36
2022/01/06 08:23:08;;;;;;;0.20;0.20;;;;;;;19.32;43.32;101477.69;5123694;27;20051;-35
2022/01/06 08:25:35;;;;;;;0.20;0.20;;;;;;;19.30;43.52;101478.81;5128427;28;20066;-34
2022/01/06 08:28:01;;;;;;;0.20;0.20;;;;;;;19.30;43.43;101484.31;5122823;28;20043;-34
2022/01/06 08:30:27;;;;;;;0.20;0.20;;;;;;;19.32;43.30;101480.47;5105086;28;20043;-34
2022/01/06 08:32:55;;;;;;;0.20;0.20;;;;;;;19.31;43.25;101498.97;5103783;28;20049;-35
2022/01/06 08:35:21;;;;;;;0.20;0.20;;;;;;;19.32;43.34;101502.56;5107728;28;20379;-34
2022/01/06 08:37:47;;;;;;;0.20;0.20;;;;;;;19.30;43.39;101503.66;5125250;28;20393;-35
2022/01/06 08:40:13;;;;;;;0.20;0.20;;;;;;;19.32;43.50;101502.56;5128260;28;20039;-35
2022/01/06 08:42:39;;;;;;;0.20;0.20;;;;;;;19.30;43.36;101494.53;5128672;28;20409;-36
2022/01/06 08:45:05;;;;;;;0.20;0.20;;;;;;;19.30;43.60;101495.38;5129088;28;20051;-34
2022/01/06 08:47:31;;;;;;;0.20;0.20;;;;;;;19.30;43.39;101503.66;5124843;28;20142;-34
2022/01/06 08:49:57;;;;;;;0.20;0.20;;;;;;;19.30;43.25;101505.59;5129884;28;20043;-34
2022/01/06 08:52:23;;;;;;;0.20;0.20;;;;;;;19.31;43.24;101498.97;5107392;28;20046;-34
2022/01/06 08:54:49;;;;;;;0.20;0.20;;;;;;;19.31;43.37;101507.25;5125368;28;21425;-35
2022/01/06 08:57:15;;;;;;;0.20;0.20;;;;;;;19.32;43.44;101499.78;5110682;28;20058;-35
2022/01/06 08:59:41;;;;;;;0.20;0.20;;;;;;;19.31;43.51;101507.25;5093756;28;20427;-36
2022/01/06 09:02:08;;;;;;;0.20;0.20;;;;;;;19.30;43.28;101500.06;5125977;28;20437;-34
2022/01/06 09:04:34;;;;;;;0.20;0.20;;;;;;;19.30;43.24;101509.19;5128595;28;20063;-34
2022/01/06 09:07:02;;;;;;;0.20;0.20;;;;;;;19.31;43.45;101515.53;5127811;28;20051;-33
2022/01/06 09:09:28;;;;;;;0.20;0.20;;;;;;;19.32;43.36;101525.47;5127535;28;20039;-33
2022/01/06 09:11:53;;;;;;;0.22;0.22;;;;;;;19.30;43.33;101522.16;5089153;28;20058;-34
2022/01/06 09:14:19;;;;;;;0.30;0.30;;;;;;;19.31;43.24;101526.59;5109416;28;20039;-34
2022/01/06 09:16:45;;;;;;;0.20;0.20;;;;;;;19.30;43.49;101528.50;5124411;28;20078;-35
2022/01/06 09:19:10;;;;;;;0.20;0.20;;;;;;;19.30;43.24;101525.75;5130824;28;20088;-37
2022/01/06 09:21:36;;;;;;;0.25;0.25;;;;;;;19.30;43.49;101528.50;5127044;28;20047;-34
2022/01/06 09:24:06;;;;;;;0.20;0.20;;;;;;;19.29;43.42;101526.81;5109288;28;20447;-34
2022/01/06 09:26:34;;;;;;;0.20;0.20;;;;;;;19.30;43.59;101527.69;5127601;28;20035;-34
2022/01/06 09:29:02;;;;;;;0.20;0.20;;;;;;;19.30;43.41;101533.22;5108144;28;20093;-35
2022/01/06 09:31:28;;;;;;;0.20;0.20;;;;;;;19.29;43.14;101532.34;5106536;28;20649;-36
2022/01/06 09:33:54;;;;;;;0.20;0.20;;;;;;;19.30;43.33;101531.28;5125956;27;20474;-33
2022/01/06 09:36:20;;;;;;;0.20;0.20;;;;;;;19.29;43.34;101532.34;5128547;28;20055;-35
2022/01/06 09:38:48;;;;;;;0.30;0.30;;;;;;;19.29;43.49;101539.81;5127852;28;20103;-34
2022/01/06 09:41:14;;;;;;;;;;;;;;;19.30;43.42;101542.31;5126989;28;20118;-34
2022/01/06 09:43:41;;;;;;;0.20;0.20;;;;;;;19.30;43.35;101533.22;5127027;28;19931;-38
2022/01/06 09:46:08;;;;;;;0.20;0.20;;;;;;;19.29;43.27;101542.56;5108776;28;20329;-34
2022/01/06 09:48:36;;;;;;;0.20;0.20;;;;;;;19.30;43.24;101542.31;5126129;28;20126;-34
2022/01/06 09:51:03;;;;;;;0.20;0.20;;;;;;;19.30;43.28;101538.72;5124743;28;20053;-34
2022/01/06 09:53:29;;;;;;;0.30;0.30;;;;;;;19.30;43.28;101542.31;5124577;28;20043;-34
2022/01/06 09:55:54;;;;;;;0.30;0.30;;;;;;;19.30;43.27;101544.25;5126774;28;20087;-34
2022/01/06 09:58:23;;;;;;;0.30;0.30;;;;;;;19.30;43.21;101544.25;5110602;28;20043;-35
2022/01/06 10:00:49;;;;;;;0.30;0.30;;;;;;;19.29;43.36;101551.69;5108229;28;20093;-34
2022/01/06 10:03:15;;;;;;;0.30;0.30;;;;;;;19.29;43.36;101548.09;5125326;28;20505;-35
2022/01/06 10:05:43;;;;;;;0.20;0.20;;;;;;;19.29;43.34;101543.41;5129066;28;20078;-35
2022/01/06 10:08:10;;;;;;;0.20;0.20;;;;;;;19.30;43.10;101556.13;5091608;28;20039;-34
2022/01/06 10:10:36;;;;;;;0.20;0.20;;;;;;;19.29;43.46;101562.72;5124479;28;20501;-34
2022/01/06 10:13:07;;;;;;;0.30;0.30;;;;;;;19.30;43.27;101556.13;5108043;28;20051;-34
2022/01/06 10:15:34;;;;;;;0.30;0.30;;;;;;;19.29;43.26;101567.41;5102482;28;20036;-34
2022/01/06 10:18:16;;;;;;;0.20;0.20;;;;;;;19.29;43.46;101562.72;5125210;27;20367;-34
2022/01/06 10:20:43;;;;;;;0.30;0.30;;;;;;;19.29;43.48;101561.91;5107580;28;20403;-35
2022/01/06 10:23:13;;;;;;;0.20;0.20;;;;;;;19.29;43.12;101559.97;5105295;28;20379;-34
2022/01/06 10:25:48;;;;;;;0.20;0.20;;;;;;;19.30;43.18;101558.06;5110621;28;20047;-35
2022/01/06 10:28:23;;;;;;;0.30;0.30;;;;;;;19.30;43.42;101552.53;5119252;28;20087;-35
2022/01/06 10:30:49;;;;;;;0.30;0.30;;;;;;;19.30;43.20;101560.81;5105927;28;20077;-34
2022/01/06 10:33:17;;;;;;;0.25;0.25;;;;;;;19.29;43.19;101556.38;5122886;28;20394;-35
2022/01/06 10:35:42;;;;;;;0.20;0.20;;;;;;;19.30;43.43;101555.31;5106201;28;20554;-35
2022/01/06 10:38:08;;;;;;;0.20;0.20;;;;;;;19.30;43.43;101558.91;5090549;28;20047;-34
2022/01/06 10:40:34;;;;;;;0.20;0.20;;;;;;;19.30;43.44;101560.81;5124623;28;20055;-34
2022/01/06 10:43:07;;;;;;;0.20;0.20;;;;;;;19.29;43.52;101557.22;5120348;28;20039;-34
2022/01/06 10:45:34;;;;;;;0.20;0.20;;;;;;;19.30;43.13;101558.06;5127766;27;20406;-34
2022/01/06 10:48:03;;;;;;;0.20;0.20;;;;;;;19.30;43.12;101567.19;5130602;28;20047;-35
2022/01/06 10:50:37;;;;;;;0.20;0.20;;;;;;;19.29;43.26;101564.66;5110886;28;20047;-34
2022/01/06 10:53:07;;;;;;;0.20;0.20;;;;;;;19.29;43.33;101554.44;5125518;28;20498;-35
2022/01/06 10:55:35;;;;;;;0.20;0.20;;;;;;;19.30;43.12;101552.53;5112334;28;20047;-34
2022/01/06 11:00:48;;;;;;;0.20;0.20;;;;;;;19.29;43.51;101545.31;5166663;27;20197;-35
2022/01/06 11:03:33;;;;;;;0.20;0.20;;;;;;;19.28;43.28;101551.97;5130217;27;20129;-34
2022/01/06 11:06:01;;;;;;;0.20;0.20;;;;;;;19.30;43.39;101547.84;5142241;27;20047;-34
2022/01/06 11:08:28;;;;;;;0.30;0.30;;;;;;;19.28;43.57;101554.72;5141860;27;20423;-35
2022/01/06 11:13:44;;;;;;;0.20;0.20;;;;;;;19.29;43.12;101546.16;5129381;27;20039;-34
2022/01/06 11:16:12;;;;;;;0.20;0.20;;;;;;;19.29;43.13;101548.09;5129373;27;20111;-34
2022/01/06 11:18:41;;;;;;;0.20;0.20;;;;;;;19.28;43.19;101551.97;5148617;27;20035;-34
2022/01/06 11:21:09;;;;;;;0.20;0.20;;;;;;;19.29;43.35;101550.84;5147743;27;20396;-34
2022/01/06 11:23:35;;;;;;;0.20;0.20;;;;;;;19.30;43.28;101555.31;5125913;27;20091;-35
2022/01/06 11:26:05;;;;;;;0.20;0.20;;;;;;;19.29;43.35;101557.22;5148794;27;20046;-34
2022/01/06 11:28:31;;;;;;;0.20;0.20;;;;;;;19.29;43.19;101559.97;5146157;27;20057;-34
2022/01/06 11:30:57;;;;;;;0.20;0.20;;;;;;;19.28;43.09;101554.72;5143672;27;20070;-34
2022/01/06 11:33:22;;;;;;;0.30;0.30;;;;;;;19.28;43.43;101560.25;5149396;27;20045;-35
2022/01/06 11:35:54;;;;;;;0.20;0.20;;;;;;;19.28;43.24;101554.72;5149097;27;20320;-35